createdAt,value
2023-01-17T00:02:26.178Z,112.63
2023-01-17T00:05:11.439Z,109.87
2023-01-17T00:07:56.747Z,108.60
2023-01-17T00:10:26.517Z,99.13
2023-01-17T00:12:57.621Z,115.33
2023-01-17T00:15:26.510Z,120.47
2023-01-17T00:17:54.737Z,103.40
2023-01-17T00:20:42.164Z,104.87
2023-01-17T00:23:33.118Z,100.13
2023-01-17T00:26:03.996Z,104.33
2023-01-17T00:28:34.123Z,107.50
2023-01-17T00:31:01.263Z,111.83
2023-01-17T00:33:28.146Z,102.43
2023-01-17T00:35:57.337Z,103.37
2023-01-17T00:38:25.433Z,97.00
2023-01-17T00:40:52.654Z,88.93
2023-01-17T00:43:40.377Z,98.97
2023-01-17T00:46:26.903Z,94.60
2023-01-17T00:49:12.039Z,83.77
2023-01-17T00:51:57.471Z,92.00
2023-01-17T00:54:42.607Z,86.03
2023-01-17T00:57:28.124Z,88.03
2023-01-17T01:00:13.306Z,87.67
2023-01-17T01:02:59.822Z,85.23
2023-01-17T01:05:45.009Z,82.73
2023-01-17T01:08:38.343Z,108.47
2023-01-17T01:11:25.736Z,93.33
2023-01-17T01:14:10.979Z,104.63
2023-01-17T01:16:56.249Z,96.77
2023-01-17T01:19:43.290Z,99.30
2023-01-17T01:22:28.607Z,108.93
2023-01-17T01:25:13.771Z,102.37
2023-01-17T01:27:59.026Z,98.13
2023-01-17T01:30:44.592Z,98.30
2023-01-17T01:33:18.743Z,96.33
2023-01-17T01:35:49.282Z,101.03
2023-01-17T01:38:17.020Z,100.93
2023-01-17T01:40:46.606Z,110.30
2023-01-17T01:43:16.282Z,108.40
2023-01-17T01:45:49.356Z,105.63
2023-01-17T01:48:34.495Z,102.57
2023-01-17T01:51:06.817Z,94.67
2023-01-17T01:53:38.188Z,98.23
2023-01-17T01:56:10.372Z,97.10
2023-01-17T01:58:39.064Z,96.03
2023-01-17T02:01:09.206Z,96.90
2023-01-17T02:03:40.738Z,93.67
2023-01-17T02:06:28.242Z,95.80
2023-01-17T02:08:58.989Z,89.37
2023-01-17T02:11:27.279Z,82.80
2023-01-17T02:13:55.056Z,92.57
2023-01-17T02:16:39.158Z,90.57
2023-01-17T02:19:31.092Z,77.47
2023-01-17T02:22:14.755Z,75.20
2023-01-17T02:25:07.889Z,79.53
2023-01-17T02:27:54.503Z,75.30
2023-01-17T02:30:34.176Z,83.77
2023-01-17T02:33:13.263Z,92.37
2023-01-17T02:35:49.273Z,93.03
2023-01-17T02:38:28.621Z,97.40
2023-01-17T02:41:02.322Z,97.50
2023-01-17T02:43:30.283Z,90.53
2023-01-17T02:45:59.304Z,88.17
2023-01-17T02:48:31.313Z,86.03
2023-01-17T02:51:31.703Z,86.23
2023-01-17T02:54:15.044Z,79.27
2023-01-17T02:56:53.054Z,78.03
2023-01-17T02:59:33.992Z,75.17
2023-01-17T03:02:11.941Z,71.10
2023-01-17T03:04:45.416Z,76.63
2023-01-17T03:07:17.519Z,82.73
2023-01-17T03:09:47.537Z,79.47
2023-01-17T03:12:15.370Z,73.43
2023-01-17T03:14:43.038Z,78.43
2023-01-17T03:17:12.144Z,72.80
2023-01-17T03:19:40.001Z,91.40
2023-01-17T03:22:07.751Z,73.83
2023-01-17T03:24:35.361Z,76.90
2023-01-17T03:27:02.996Z,82.53
2023-01-17T03:29:30.733Z,78.87
2023-01-17T03:31:58.337Z,84.37
2023-01-17T03:34:27.364Z,80.93
2023-01-17T03:36:55.031Z,84.53
2023-01-17T03:39:22.657Z,88.63
2023-01-17T03:41:50.345Z,90.97
2023-01-17T03:44:19.130Z,77.20
2023-01-17T03:46:46.762Z,72.37
2023-01-17T03:49:14.395Z,72.87
2023-01-17T03:51:43.709Z,74.00
2023-01-17T03:54:11.548Z,67.60
2023-01-17T03:56:39.176Z,62.80
2023-01-17T03:59:06.814Z,68.67
2023-01-17T04:01:34.620Z,68.60
2023-01-17T04:04:02.428Z,67.40
2023-01-17T04:06:30.154Z,67.13
2023-01-17T04:08:59.157Z,78.00
2023-01-17T04:11:26.864Z,69.23
2023-01-17T04:13:55.188Z,73.10
2023-01-17T04:16:26.551Z,79.90
2023-01-17T04:18:54.275Z,61.37
2023-01-17T04:21:22.152Z,66.03
2023-01-17T04:23:50.071Z,70.77
2023-01-17T04:26:19.037Z,71.03
2023-01-17T04:28:46.784Z,71.97
2023-01-17T04:31:16.983Z,62.47
2023-01-17T04:33:44.777Z,64.57
2023-01-17T04:36:12.518Z,69.13
2023-01-17T04:38:40.437Z,70.07
2023-01-17T04:41:08.165Z,70.30
2023-01-17T04:43:37.227Z,69.00
2023-01-17T04:46:09.868Z,75.00
2023-01-17T04:48:38.235Z,74.83
2023-01-17T04:51:07.064Z,74.67
2023-01-17T04:53:34.854Z,72.23
2023-01-17T04:56:02.924Z,83.87
2023-01-17T04:58:31.115Z,77.13
2023-01-17T05:01:04.120Z,81.93
2023-01-17T05:03:32.347Z,76.70
2023-01-17T05:06:00.176Z,74.80
2023-01-17T05:08:28.106Z,72.53
2023-01-17T05:10:55.765Z,81.87
2023-01-17T05:13:23.445Z,78.80
2023-01-17T05:15:51.313Z,77.83
2023-01-17T05:18:20.357Z,81.17
2023-01-17T05:20:47.974Z,77.77
2023-01-17T05:23:15.583Z,83.33
2023-01-17T05:25:44.276Z,84.00
2023-01-17T05:28:13.448Z,84.97
2023-01-17T05:30:41.602Z,79.60
2023-01-17T05:33:10.196Z,86.57
2023-01-17T05:35:39.267Z,80.80
2023-01-17T05:38:06.995Z,72.77
2023-01-17T05:40:34.963Z,74.20
2023-01-17T05:43:04.028Z,76.93
2023-01-17T05:45:33.578Z,75.87
2023-01-17T05:48:01.433Z,89.50
2023-01-17T05:50:30.707Z,97.00
2023-01-17T05:53:01.676Z,94.13
2023-01-17T05:55:30.854Z,94.87
2023-01-17T05:57:59.481Z,97.33
2023-01-17T06:00:27.502Z,86.87
2023-01-17T06:02:55.961Z,83.10
2023-01-17T06:05:24.657Z,88.90
2023-01-17T06:07:52.394Z,88.63
2023-01-17T06:10:23.127Z,78.87
2023-01-17T06:12:51.363Z,83.10
2023-01-17T06:15:19.452Z,83.60
2023-01-17T06:17:47.091Z,85.53
2023-01-17T06:20:14.724Z,75.60
2023-01-17T06:22:42.388Z,80.13
2023-01-17T06:25:10.808Z,81.53
2023-01-17T06:27:39.753Z,75.13
2023-01-17T06:30:08.727Z,75.07
2023-01-17T06:32:36.373Z,74.43
2023-01-17T06:35:04.043Z,78.77
2023-01-17T06:37:31.759Z,77.97
2023-01-17T06:39:59.376Z,76.57
2023-01-17T06:42:26.987Z,83.20
2023-01-17T06:44:56.026Z,85.37
2023-01-17T06:47:24.018Z,86.50
2023-01-17T06:49:51.691Z,71.43
2023-01-17T06:52:19.306Z,81.80
2023-01-17T06:54:47.044Z,75.60
2023-01-17T06:57:14.681Z,76.33
2023-01-17T06:59:42.324Z,79.93
2023-01-17T07:02:12.280Z,75.17
2023-01-17T07:04:39.944Z,76.97
2023-01-17T07:07:07.601Z,73.23
2023-01-17T07:09:35.284Z,75.70
2023-01-17T07:12:03.716Z,76.00
2023-01-17T07:14:31.416Z,70.13
2023-01-17T07:16:59.079Z,73.30
2023-01-17T07:19:28.067Z,71.63
2023-01-17T07:21:55.802Z,80.17
2023-01-17T07:24:23.462Z,69.47
2023-01-17T07:26:51.543Z,69.23
2023-01-17T07:29:19.786Z,67.63
2023-01-17T07:31:49.980Z,66.60
2023-01-17T07:34:17.751Z,61.20
2023-01-17T07:36:48.481Z,62.10
2023-01-17T07:39:16.278Z,64.87
2023-01-17T07:41:43.895Z,57.97
2023-01-17T07:44:12.959Z,66.57
2023-01-17T07:46:40.865Z,66.83
2023-01-17T07:49:08.491Z,64.77
2023-01-17T07:51:36.142Z,59.27
2023-01-17T07:54:05.723Z,63.00
2023-01-17T07:56:34.729Z,70.27
2023-01-17T07:59:02.739Z,62.57
2023-01-17T08:01:31.235Z,56.93
2023-01-17T08:03:59.015Z,59.87
2023-01-17T08:06:27.687Z,55.27
2023-01-17T08:08:58.719Z,55.00
2023-01-17T08:11:27.924Z,56.40
2023-01-17T08:13:59.156Z,57.93
2023-01-17T08:16:28.600Z,52.10
2023-01-17T08:18:56.732Z,53.60
2023-01-17T08:21:25.235Z,54.37
2023-01-17T08:23:53.221Z,51.43
2023-01-17T08:26:22.594Z,54.20
2023-01-17T08:28:55.958Z,53.90
2023-01-17T08:31:25.549Z,55.30
2023-01-17T08:33:53.414Z,54.70
2023-01-17T08:36:21.063Z,54.83
2023-01-17T08:38:52.607Z,52.87
2023-01-17T08:41:20.881Z,52.70
2023-01-17T08:43:49.385Z,53.00
2023-01-17T08:46:19.179Z,56.70
2023-01-17T08:48:47.198Z,48.63
2023-01-17T08:51:15.029Z,52.90
2023-01-17T08:53:43.181Z,54.53
2023-01-17T08:56:10.860Z,59.77
2023-01-17T08:58:38.503Z,50.07
2023-01-17T09:01:07.034Z,54.97
2023-01-17T09:03:38.314Z,55.57
2023-01-17T09:06:08.853Z,47.70
2023-01-17T09:08:37.967Z,51.73
2023-01-17T09:11:06.538Z,50.60
2023-01-17T09:13:34.252Z,54.47
2023-01-17T09:16:02.361Z,53.80
2023-01-17T09:18:32.044Z,58.00
2023-01-17T09:21:09.834Z,67.07
2023-01-17T09:23:37.539Z,64.27
2023-01-17T09:26:05.407Z,62.40
2023-01-17T09:28:39.547Z,71.47
2023-01-17T09:31:08.231Z,70.23
2023-01-17T09:33:36.167Z,71.53
2023-01-17T09:36:05.819Z,77.83
2023-01-17T09:38:34.027Z,88.10
2023-01-17T09:41:03.199Z,90.30
2023-01-17T09:43:41.065Z,82.57
2023-01-17T09:46:22.752Z,84.53
2023-01-17T09:48:54.830Z,96.13
2023-01-17T09:51:25.194Z,106.53
2023-01-17T09:53:54.598Z,117.03
2023-01-17T09:56:29.441Z,111.07
2023-01-17T09:59:16.804Z,98.07
2023-01-17T10:01:51.757Z,104.60
2023-01-17T10:04:34.862Z,102.57
2023-01-17T10:07:14.262Z,102.60
2023-01-17T10:10:04.614Z,100.53
2023-01-17T10:12:40.863Z,105.57
2023-01-17T10:15:27.962Z,108.03
2023-01-17T10:18:04.508Z,107.43
2023-01-17T10:20:47.544Z,111.43
2023-01-17T10:23:34.185Z,119.23
2023-01-17T10:26:03.874Z,114.33
2023-01-17T10:28:36.980Z,103.43
2023-01-17T10:31:08.694Z,100.80
2023-01-17T10:33:41.337Z,101.27
2023-01-17T10:36:15.711Z,120.57
2023-01-17T10:38:47.848Z,109.73
2023-01-17T10:41:19.252Z,125.37
2023-01-17T10:43:56.192Z,132.00
2023-01-17T10:46:28.694Z,116.07
2023-01-17T10:48:57.507Z,133.60
2023-01-17T10:51:43.837Z,156.57
2023-01-17T10:54:24.840Z,141.17
2023-01-17T10:56:53.002Z,144.27
2023-01-17T10:59:30.340Z,159.53
2023-01-17T11:01:58.170Z,168.07
2023-01-17T11:04:33.601Z,164.20
2023-01-17T11:07:12.965Z,155.80
2023-01-17T11:09:43.692Z,155.10
2023-01-17T11:12:21.912Z,178.40
2023-01-17T11:14:58.649Z,177.77
2023-01-17T11:17:27.525Z,156.83
2023-01-17T11:19:55.619Z,173.23
2023-01-17T11:22:24.877Z,182.57
2023-01-17T11:24:56.073Z,181.03
2023-01-17T11:27:28.285Z,180.80
2023-01-17T11:30:15.740Z,176.93
2023-01-17T11:32:52.974Z,178.27
2023-01-17T11:35:25.400Z,169.23
2023-01-17T11:38:04.400Z,168.53
2023-01-17T11:40:38.720Z,164.83
2023-01-17T11:43:19.927Z,163.13
2023-01-17T11:46:00.550Z,162.10
2023-01-17T11:48:36.083Z,163.83
2023-01-17T11:51:05.578Z,168.43
2023-01-17T11:53:37.481Z,163.33
2023-01-17T11:56:09.955Z,177.73
2023-01-17T11:58:40.843Z,168.17
2023-01-17T12:01:31.208Z,169.30
2023-01-17T12:04:15.706Z,174.10
2023-01-17T12:06:57.536Z,167.13
2023-01-17T12:09:34.083Z,181.57
2023-01-17T12:12:29.889Z,182.17
2023-01-17T12:15:07.254Z,173.57
2023-01-17T12:17:53.694Z,184.30
2023-01-17T12:20:28.860Z,185.13
2023-01-17T12:23:25.449Z,191.87
2023-01-17T12:26:10.328Z,198.73
2023-01-17T12:28:58.417Z,194.03
2023-01-17T12:31:33.560Z,192.47
2023-01-17T12:34:15.501Z,195.73
2023-01-17T12:36:48.528Z,205.00
2023-01-17T12:39:20.145Z,189.00
2023-01-17T12:41:58.682Z,191.17
2023-01-17T12:44:40.970Z,191.43
2023-01-17T12:47:08.666Z,195.47
2023-01-17T12:49:43.818Z,195.20
2023-01-17T12:52:20.158Z,211.67
2023-01-17T12:54:52.491Z,185.03
2023-01-17T12:57:24.435Z,194.00
2023-01-17T12:59:59.262Z,208.30
2023-01-17T13:02:37.136Z,196.23
2023-01-17T13:05:10.584Z,180.93
2023-01-17T13:07:47.150Z,179.10
2023-01-17T13:10:32.066Z,177.30
2023-01-17T13:13:22.456Z,160.43
2023-01-17T13:16:18.898Z,160.80
2023-01-17T13:19:16.242Z,161.97
2023-01-17T13:22:07.849Z,143.43
2023-01-17T13:25:07.360Z,148.93
2023-01-17T13:28:22.746Z,146.77
2023-01-17T13:31:35.636Z,145.73
2023-01-17T13:34:47.252Z,151.23
2023-01-17T13:37:52.235Z,142.10
2023-01-17T13:40:50.540Z,141.17
2023-01-17T13:43:41.354Z,140.90
2023-01-17T13:46:32.731Z,147.40
2023-01-17T13:49:34.109Z,141.87
2023-01-17T13:52:35.684Z,153.50
2023-01-17T13:55:46.507Z,141.70
2023-01-17T13:58:58.250Z,151.53
2023-01-17T14:01:54.696Z,143.07
2023-01-17T14:05:08.717Z,158.03
2023-01-17T14:07:59.665Z,144.80
2023-01-17T14:10:49.824Z,153.00
2023-01-17T14:13:39.654Z,141.83
2023-01-17T14:16:31.241Z,134.30
2023-01-17T14:19:27.807Z,149.90
2023-01-17T14:22:24.696Z,140.73
2023-01-17T14:25:18.004Z,157.47
2023-01-17T14:28:20.003Z,154.53
2023-01-17T14:31:11.460Z,138.37
2023-01-17T14:34:12.473Z,142.83
2023-01-17T14:37:19.110Z,146.60
2023-01-17T14:40:19.140Z,141.63
2023-01-17T14:43:11.908Z,141.70
2023-01-17T14:46:02.843Z,129.13
2023-01-17T14:48:51.602Z,145.90
2023-01-17T14:51:39.544Z,142.13
2023-01-17T14:54:28.887Z,146.23
2023-01-17T14:57:25.321Z,142.73
2023-01-17T15:00:20.132Z,144.73
2023-01-17T15:03:12.090Z,142.10
2023-01-17T15:06:11.306Z,155.43
2023-01-17T15:09:03.220Z,143.23
2023-01-17T15:11:54.081Z,139.13
2023-01-17T15:14:45.334Z,136.23
2023-01-17T15:17:33.356Z,139.80
2023-01-17T15:20:21.873Z,150.57
2023-01-17T15:23:18.154Z,143.67
2023-01-17T15:26:10.922Z,139.50
2023-01-17T15:29:05.483Z,140.57
2023-01-17T15:31:55.009Z,134.60
2023-01-17T15:34:46.485Z,136.47
2023-01-17T15:37:36.763Z,134.00
2023-01-17T15:40:27.900Z,127.87
2023-01-17T15:43:21.502Z,125.87
2023-01-17T15:46:24.146Z,124.13
2023-01-17T15:49:18.052Z,121.50
2023-01-17T15:52:16.308Z,120.13
2023-01-17T15:55:13.728Z,110.67
2023-01-17T15:58:02.269Z,114.77
2023-01-17T16:00:50.291Z,106.97
2023-01-17T16:03:39.542Z,107.67
2023-01-17T16:06:45.305Z,115.53
2023-01-17T16:09:43.874Z,104.90
2023-01-17T16:12:31.763Z,113.27
2023-01-17T16:15:20.434Z,105.13
2023-01-17T16:18:16.737Z,121.80
2023-01-17T16:21:18.578Z,110.83
2023-01-17T16:24:10.708Z,116.47
2023-01-17T16:26:58.917Z,115.30
2023-01-17T16:29:46.986Z,118.20
2023-01-17T16:32:34.937Z,128.83
2023-01-17T16:35:24.411Z,117.77
2023-01-17T16:38:16.067Z,123.70
2023-01-17T16:41:05.363Z,125.00
2023-01-17T16:43:59.495Z,130.20
2023-01-17T16:46:47.438Z,124.37
2023-01-17T16:49:35.528Z,121.03
2023-01-17T16:52:23.416Z,124.73
2023-01-17T16:55:15.956Z,121.83
2023-01-17T16:58:04.106Z,112.20
2023-01-17T17:00:52.208Z,120.47
2023-01-17T17:03:41.052Z,118.80
2023-01-17T17:06:31.024Z,125.23
2023-01-17T17:09:21.357Z,124.30
2023-01-17T17:12:10.683Z,123.07
2023-01-17T17:14:58.619Z,121.40
2023-01-17T17:17:48.015Z,118.63
2023-01-17T17:20:35.949Z,115.00
2023-01-17T17:23:23.862Z,109.87
2023-01-17T17:26:11.764Z,124.67
2023-01-17T17:29:01.540Z,117.43
2023-01-17T17:31:49.460Z,121.20
2023-01-17T17:34:38.254Z,122.50
2023-01-17T17:37:28.932Z,115.03
2023-01-17T17:40:17.394Z,105.97
2023-01-17T17:43:05.326Z,117.90
2023-01-17T17:45:54.573Z,110.20
2023-01-17T17:48:42.467Z,129.80
2023-01-17T17:51:32.496Z,117.00
2023-01-17T17:54:22.014Z,120.20
2023-01-17T17:57:10.377Z,105.07
2023-01-17T17:59:59.716Z,125.27
2023-01-17T18:02:49.044Z,119.97
2023-01-17T18:05:36.975Z,126.17
2023-01-17T18:08:24.890Z,116.13
2023-01-17T18:11:18.299Z,116.70
2023-01-17T18:14:09.334Z,119.43
2023-01-17T18:16:57.535Z,117.77
2023-01-17T18:19:47.022Z,122.50
2023-01-17T18:22:34.944Z,127.33
2023-01-17T18:25:22.885Z,122.70
2023-01-17T18:28:10.829Z,129.97
2023-01-17T18:30:58.952Z,124.03
2023-01-17T18:33:46.966Z,125.93
2023-01-17T18:36:36.685Z,129.87
2023-01-17T18:39:26.541Z,123.87
2023-01-17T18:42:14.488Z,128.07
2023-01-17T18:45:02.459Z,119.70
2023-01-17T18:47:50.361Z,121.60
2023-01-17T18:50:38.278Z,116.73
2023-01-17T18:53:28.299Z,119.83
2023-01-17T18:56:19.447Z,115.10
2023-01-17T18:59:08.899Z,123.87
2023-01-17T19:01:56.868Z,114.17
2023-01-17T19:04:44.898Z,108.40
2023-01-17T19:07:33.160Z,114.87
2023-01-17T19:10:22.408Z,102.53
2023-01-17T19:13:10.641Z,110.43
2023-01-17T19:16:00.791Z,109.67
2023-01-17T19:18:48.703Z,112.87
2023-01-17T19:21:37.080Z,102.73
2023-01-17T19:24:25.658Z,112.67
2023-01-17T19:27:14.960Z,121.23
2023-01-17T19:30:02.933Z,113.97
2023-01-17T19:32:51.329Z,119.87
2023-01-17T19:35:39.268Z,111.77
2023-01-17T19:38:27.208Z,120.07
2023-01-17T19:41:17.706Z,109.57
2023-01-17T19:44:09.168Z,109.13
2023-01-17T19:46:57.334Z,104.60
2023-01-17T19:49:45.589Z,109.30
2023-01-17T19:52:33.538Z,111.47
2023-01-17T19:55:25.619Z,114.17
2023-01-17T19:58:13.827Z,108.73
2023-01-17T20:01:14.245Z,112.90
2023-01-17T20:04:03.200Z,102.17
2023-01-17T20:06:51.099Z,109.73
2023-01-17T20:09:39.077Z,101.17
2023-01-17T20:12:27.217Z,113.40
2023-01-17T20:15:15.138Z,113.80
2023-01-17T20:18:04.751Z,110.13
2023-01-17T20:20:57.412Z,112.73
2023-01-17T20:23:47.796Z,118.00
2023-01-17T20:26:36.320Z,116.27
2023-01-17T20:29:24.631Z,121.77
2023-01-17T20:32:12.558Z,120.47
2023-01-17T20:35:01.813Z,131.27
2023-01-17T20:37:52.115Z,121.97
2023-01-17T20:40:41.005Z,116.63
2023-01-17T20:43:28.909Z,126.33
2023-01-17T20:46:17.792Z,125.90
2023-01-17T20:49:07.533Z,116.23
2023-01-17T20:51:57.845Z,120.50
2023-01-17T20:54:45.722Z,122.40
2023-01-17T20:57:34.211Z,117.43
2023-01-17T21:00:22.716Z,118.07
2023-01-17T21:03:10.620Z,117.37
2023-01-17T21:06:02.651Z,124.00
2023-01-17T21:08:52.858Z,120.20
2023-01-17T21:11:40.875Z,117.93
2023-01-17T21:14:28.996Z,119.93
2023-01-17T21:17:16.994Z,120.03
2023-01-17T21:20:07.983Z,128.60
2023-01-17T21:22:56.100Z,121.83
2023-01-17T21:25:56.253Z,113.10
2023-01-17T21:28:46.011Z,118.40
2023-01-17T21:31:35.576Z,120.53
2023-01-17T21:34:25.436Z,124.03
2023-01-17T21:37:13.549Z,134.43
2023-01-17T21:40:03.109Z,120.63
2023-01-17T21:42:54.264Z,118.10
2023-01-17T21:45:42.937Z,126.70
2023-01-17T21:48:31.065Z,114.70
2023-01-17T21:51:21.641Z,124.20
2023-01-17T21:54:09.612Z,123.93
2023-01-17T21:57:15.063Z,123.10
2023-01-17T22:00:06.210Z,120.47
2023-01-17T22:02:59.479Z,118.23
2023-01-17T22:05:47.373Z,116.83
2023-01-17T22:08:36.146Z,117.90
2023-01-17T22:11:25.792Z,136.10
2023-01-17T22:14:13.774Z,118.80
2023-01-17T22:17:03.006Z,127.63
2023-01-17T22:19:50.895Z,123.30
2023-01-17T22:22:38.830Z,123.03
2023-01-17T22:25:26.893Z,126.63
2023-01-17T22:28:14.808Z,120.27
2023-01-17T22:31:11.529Z,129.93
2023-01-17T22:34:02.625Z,126.70
2023-01-17T22:36:50.569Z,129.37
2023-01-17T22:39:38.686Z,130.33
2023-01-17T22:42:26.587Z,130.50
2023-01-17T22:45:14.752Z,127.00
2023-01-17T22:48:02.695Z,133.93
2023-01-17T22:50:51.988Z,126.70
2023-01-17T22:53:41.249Z,122.07
2023-01-17T22:56:31.660Z,123.03
2023-01-17T22:59:19.596Z,126.33
2023-01-17T23:02:07.525Z,121.67
2023-01-17T23:04:55.468Z,121.20
2023-01-17T23:07:44.771Z,128.97
2023-01-17T23:10:50.431Z,128.53
2023-01-17T23:13:38.611Z,120.90
2023-01-17T23:16:44.307Z,105.83
2023-01-17T23:19:34.869Z,109.07
2023-01-17T23:22:24.487Z,111.13
2023-01-17T23:25:14.835Z,127.70
2023-01-17T23:28:11.037Z,120.37
2023-01-17T23:31:04.051Z,117.43
2023-01-17T23:33:51.999Z,122.00
2023-01-17T23:36:39.955Z,117.80
2023-01-17T23:39:28.629Z,126.27
2023-01-17T23:42:35.568Z,116.23
2023-01-17T23:45:23.512Z,126.23
2023-01-17T23:48:11.672Z,117.57
2023-01-17T23:51:02.225Z,115.97
2023-01-17T23:53:53.324Z,109.30
2023-01-17T23:56:41.294Z,122.30
2023-01-17T23:59:30.570Z,118.03
